Arroyo Grande, California
Current Conditions -  °F | °C
As of 11:56 PM on Saturday 22 Nov 2014 (Local Time) from KSBP Reporting Station
Clear Clear  
Wind Chill: 59°   Ceiling: Unl
Heat Index: 59°   Visibility: 10mi
Dew Point: 51°   Wind: 15mph
Humidity: 75%   Direction: 300°WNW
Pressure: 30.15"   Gusts: 22mph
Location:  35.12°N, 120.57°W
Report Text: KSBP 230756Z AUTO 30013G19KT 10SM CLR 15/11 A3015 RMK AO2 SLP206 T01500106 402110083
Loading
Personal Weather Stations






























Interactive Weather Map New forecast layout! Learn more

10-Day Weather Forecast

Advertisements
Track Severe Weather on mobile